Time;durP1;ratioP1;P1;durP2;ratioP2;P2;SDS_P1;SDS_P2;PMS_P1;PMS_P2;Temp;Humidity;BMP_temperature;BMP_pressure;BME280_temperature;BME280_humidity;BME280_pressure;Samples;Min_cycle;Max_cycle;Signal;HPM_P1;HPM_P2
2022/09/19 00:00:45;;;;;;;1.70;0.30;;;;;;;;;;5013013;28;20445;-79
2022/09/19 00:03:12;;;;;;;0.53;0.33;;;;;;;;;;5011592;28;20494;-79
2022/09/19 00:05:41;;;;;;;0.70;0.40;;;8.00;99.90;;;;;;5015421;28;20456;-79
2022/09/19 00:08:09;;;;;;;0.50;0.30;;;8.00;99.90;;;;;;5016871;28;20448;-79
2022/09/19 00:10:40;;;;;;;0.50;0.30;;;8.00;99.90;;;;;;5016777;28;20447;-79
2022/09/19 00:13:08;;;;;;;0.40;0.30;;;8.00;99.90;;;;;;5016684;28;20552;-80
2022/09/19 00:15:36;;;;;;;1.30;0.30;;;8.00;99.90;;;;;;5016710;28;20455;-79
2022/09/19 00:18:03;;;;;;;0.70;0.30;;;;;;;;;;5015409;28;20459;-79
2022/09/19 00:20:31;;;;;;;0.40;0.30;;;;;;;;;;5016635;28;20990;-80
2022/09/19 00:25:43;;;;;;;0.60;0.40;;;;;;;;;;5016567;28;20920;-79
2022/09/19 00:28:10;;;;;;;1.70;0.40;;;;;;;;;;5016475;28;20452;-82
2022/09/19 00:30:38;;;;;;;0.60;0.33;;;7.70;99.90;;;;;;5016319;28;20455;-79
2022/09/19 00:33:05;;;;;;;0.50;0.20;;;;;;;;;;5015076;28;20476;-80
2022/09/19 00:35:33;;;;;;;5.03;0.33;;;;;;;;;;5016429;28;20454;-80
2022/09/19 00:38:01;;;;;;;0.63;0.30;;;7.60;99.90;;;;;;5016310;28;20466;-80
2022/09/19 00:40:28;;;;;;;0.43;0.30;;;;;;;;;;5016291;28;20448;-80
2022/09/19 00:42:55;;;;;;;0.53;0.30;;;;;;;;;;5015938;28;20586;-80
2022/09/19 00:45:22;;;;;;;0.50;0.30;;;;;;;;;;5013089;28;20448;-81
2022/09/19 00:47:52;;;;;;;0.93;0.40;;;7.40;99.90;;;;;;5015012;28;20452;-80
2022/09/19 00:50:22;;;;;;;0.50;0.30;;;7.40;99.90;;;;;;5016031;28;20506;-81
2022/09/19 00:52:54;;;;;;;0.40;0.30;;;7.30;99.90;;;;;;5005269;28;20466;-81
2022/09/19 00:55:22;;;;;;;0.40;0.30;;;7.30;99.90;;;;;;5010496;28;20476;-81
2022/09/19 00:58:09;;;;;;;1.97;0.33;;;7.30;99.90;;;;;;5015924;28;20472;-80
2022/09/19 01:00:37;;;;;;;0.50;0.30;;;;;;;;;;5015877;28;20480;-80
2022/09/19 01:03:09;;;;;;;0.50;0.30;;;7.20;99.90;;;;;;5014583;28;20483;-80
2022/09/19 01:05:49;;;;;;;4.13;0.40;;;7.20;99.90;;;;;;5015744;28;20861;-80
2022/09/19 01:08:30;;;;;;;5.30;0.30;;;7.10;99.90;;;;;;5015737;28;20452;-80
2022/09/19 01:11:16;;;;;;;0.40;0.30;;;7.10;99.90;;;;;;5015661;28;20448;-80
2022/09/19 01:13:52;;;;;;;7.10;0.57;;;7.00;99.90;;;;;;5015557;28;20494;-80
2022/09/19 01:16:22;;;;;;;0.40;0.20;;;7.10;99.90;;;;;;5014491;28;20452;-80
2022/09/19 01:19:02;;;;;;;0.50;0.30;;;7.00;99.90;;;;;;5014300;28;20543;-80
2022/09/19 01:21:41;;;;;;;1.90;0.53;;;6.90;99.90;;;;;;5015446;28;20799;-80
2022/09/19 01:24:30;;;;;;;0.97;0.30;;;6.90;99.90;;;;;;5015436;28;20452;-80
2022/09/19 01:27:18;;;;;;;0.40;0.30;;;6.80;99.90;;;;;;5015365;28;20460;-80
2022/09/19 01:29:49;;;;;;;1.10;0.30;;;6.80;99.90;;;;;;5015432;28;20452;-80
2022/09/19 01:32:19;;;;;;;0.40;0.30;;;6.70;99.90;;;;;;5013962;28;20484;-80
2022/09/19 01:34:49;;;;;;;2.83;0.30;;;6.80;99.90;;;;;;5015281;28;20862;-81
2022/09/19 01:37:19;;;;;;;1.00;0.30;;;6.80;99.90;;;;;;5015132;28;20449;-80
2022/09/19 01:39:49;;;;;;;0.50;0.30;;;6.80;99.90;;;;;;5015412;28;20449;-80
2022/09/19 01:42:20;;;;;;;0.70;0.70;;;6.80;99.90;;;;;;5015112;28;20460;-80
2022/09/19 01:44:48;;;;;;;0.50;0.40;;;6.90;99.90;;;;;;5015099;28;20893;-81
2022/09/19 01:47:24;;;;;;;0.40;0.30;;;6.90;99.90;;;;;;5013861;28;20458;-80
2022/09/19 01:49:58;;;;;;;0.50;0.40;;;6.90;99.90;;;;;;5014976;28;20444;-81
2022/09/19 01:52:39;;;;;;;0.70;0.40;;;7.00;99.90;;;;;;5014972;28;20475;-80
2022/09/19 01:55:16;;;;;;;0.87;0.50;;;6.90;99.90;;;;;;5014853;28;20488;-80
2022/09/19 01:57:50;;;;;;;0.60;0.50;;;6.90;99.90;;;;;;5014843;28;20464;-81
2022/09/19 02:00:21;;;;;;;1.57;0.53;;;7.00;99.90;;;;;;5014729;28;20537;-81
2022/09/19 02:03:04;;;;;;;0.73;0.50;;;7.00;99.90;;;;;;5013659;28;20452;-79
2022/09/19 02:05:37;;;;;;;1.10;0.63;;;6.90;99.90;;;;;;5015225;28;20564;-80
2022/09/19 02:08:09;;;;;;;0.93;0.70;;;6.90;99.90;;;;;;5015713;28;20448;-79
2022/09/19 02:10:41;;;;;;;2.07;0.90;;;6.90;99.90;;;;;;5037578;28;20436;-81
2022/09/19 02:13:10;;;;;;;2.60;0.50;;;6.90;99.90;;;;;;5029485;28;20445;-81
2022/09/19 02:15:46;;;;;;;0.57;0.57;;;7.00;99.90;;;;;;5015050;28;20459;-80
2022/09/19 02:18:24;;;;;;;0.70;0.60;;;6.90;99.90;;;;;;5013932;28;20869;-85
2022/09/19 02:20:58;;;;;;;0.60;0.50;;;6.90;99.90;;;;;;5014288;28;20456;-81
2022/09/19 02:23:28;;;;;;;0.77;0.60;;;6.90;99.90;;;;;;5011224;28;20468;-81
2022/09/19 02:25:58;;;;;;;0.70;0.60;;;6.90;99.90;;;;;;5014278;28;20448;-81
2022/09/19 02:28:31;;;;;;;0.70;0.43;;;6.80;99.90;;;;;;5014166;28;20456;-80
2022/09/19 02:31:01;;;;;;;1.33;0.60;;;6.80;99.90;;;;;;5014169;28;20452;-81
2022/09/19 02:33:28;;;;;;;1.07;0.67;;;;;;;;;;5012598;28;20492;-81
2022/09/19 02:36:03;;;;;;;1.03;0.60;;;6.80;99.90;;;;;;5014109;28;20940;-80
2022/09/19 02:38:36;;;;;;;3.03;0.60;;;6.80;99.90;;;;;;5014142;28;20475;-80
2022/09/19 02:41:08;;;;;;;1.00;0.70;;;6.80;99.90;;;;;;5013940;28;20471;-81
2022/09/19 02:43:43;;;;;;;1.20;0.90;;;6.80;99.90;;;;;;5013955;28;20448;-81
2022/09/19 02:46:17;;;;;;;0.70;0.70;;;6.70;99.90;;;;;;5013916;28;20479;-81
2022/09/19 02:48:54;;;;;;;0.87;0.70;;;6.70;99.90;;;;;;5012852;28;20444;-81
2022/09/19 02:51:25;;;;;;;0.83;0.70;;;6.70;99.90;;;;;;5013809;28;20452;-81
2022/09/19 02:53:57;;;;;;;1.00;0.70;;;6.70;99.90;;;;;;5013805;28;20912;-81
2022/09/19 02:56:28;;;;;;;1.33;0.83;;;6.70;99.90;;;;;;5013745;28;20453;-81
2022/09/19 02:59:00;;;;;;;2.93;0.83;;;6.60;99.90;;;;;;5010602;28;20477;-81
2022/09/19 03:01:33;;;;;;;0.50;0.50;;;6.70;99.90;;;;;;5013762;28;20457;-81
2022/09/19 03:04:13;;;;;;;1.20;0.60;;;6.70;99.90;;;;;;5012994;28;20821;-81
2022/09/19 03:06:45;;;;;;;1.50;0.87;;;6.70;99.90;;;;;;5013704;28;20455;-81
2022/09/19 03:09:14;;;;;;;2.40;0.93;;;6.70;99.90;;;;;;5013541;28;20456;-81
2022/09/19 03:11:48;;;;;;;1.43;0.70;;;6.60;99.90;;;;;;5013548;28;20459;-83
2022/09/19 03:14:15;;;;;;;2.37;0.57;;;;;;;;;;5013423;28;20503;-82
2022/09/19 03:16:47;;;;;;;1.70;0.77;;;6.70;99.90;;;;;;5012251;28;20822;-81
2022/09/19 03:19:15;;;;;;;3.13;0.80;;;6.70;99.90;;;;;;5013644;28;20479;-80
2022/09/19 03:21:43;;;;;;;2.17;0.73;;;;;;;;;;5013565;28;20464;-81
2022/09/19 03:24:10;;;;;;;1.03;0.77;;;;;;;;;;5010691;28;20448;-80
2022/09/19 03:26:38;;;;;;;1.20;0.60;;;6.60;99.90;;;;;;5013467;28;20448;-82
2022/09/19 03:29:08;;;;;;;0.73;0.60;;;6.70;99.90;;;;;;5013268;28;20954;-82
2022/09/19 03:31:35;;;;;;;1.90;1.23;;;6.70;99.90;;;;;;5012956;28;20480;-80
2022/09/19 03:34:04;;;;;;;1.00;0.87;;;6.70;99.90;;;;;;5012213;28;20496;-80
2022/09/19 03:36:33;;;;;;;1.63;1.47;;;;;;;;;;5013331;28;20475;-81
2022/09/19 03:39:01;;;;;;;2.00;1.33;;;;;;;;;;5013015;28;20468;-81
2022/09/19 03:41:30;;;;;;;1.40;1.30;;;6.50;99.90;;;;;;5013155;28;20452;-84
2022/09/19 03:44:00;;;;;;;4.53;1.10;;;;;;;;;;5013201;28;20452;-81
2022/09/19 03:46:27;;;;;;;1.37;0.93;;;;;;;;;;5013373;28;20455;-84
2022/09/19 03:48:55;;;;;;;1.33;0.67;;;;;;;;;;5012008;28;20444;-80
2022/09/19 03:51:24;;;;;;;1.20;0.97;;;6.60;99.90;;;;;;5013082;28;20451;-80
2022/09/19 03:53:51;;;;;;;1.20;1.10;;;;;;;;;;5012979;28;20474;-80
2022/09/19 03:56:18;;;;;;;1.17;0.80;;;;;;;;;;5013166;28;20951;-80
2022/09/19 03:58:45;;;;;;;2.30;0.93;;;;;;;;;;5013118;28;20475;-82
2022/09/19 04:01:15;;;;;;;5.13;1.90;;;;;;;;;;5013082;28;20459;-80
2022/09/19 04:03:42;;;;;;;2.30;0.77;;;;;;;;;;5011849;28;20539;-82
2022/09/19 04:06:10;;;;;;;2.80;1.20;;;;;;;;;;5013216;28;20458;-81
2022/09/19 04:08:38;;;;;;;1.50;0.60;;;;;;;;;;5013003;28;20459;-83
2022/09/19 04:11:05;;;;;;;5.80;1.60;;;;;;;;;;5013077;28;20455;-81
2022/09/19 04:13:33;;;;;;;3.23;2.13;;;;;;;;;;5012817;28;20448;-82
2022/09/19 04:16:01;;;;;;;3.40;1.20;;;;;;;;;;5012637;28;20491;-81
2022/09/19 04:18:28;;;;;;;2.13;1.30;;;;;;;;;;5011800;28;20448;-82
2022/09/19 04:20:55;;;;;;;1.17;1.03;;;;;;;;;;5012842;28;20459;-80
2022/09/19 04:23:25;;;;;;;3.27;1.07;;;;;;;;;;5012840;28;20815;-79
2022/09/19 04:25:53;;;;;;;2.20;1.00;;;7.10;99.90;;;;;;5012863;28;20456;-82
2022/09/19 04:28:21;;;;;;;3.63;1.00;;;;;;;;;;5012786;28;20452;-82
2022/09/19 04:30:48;;;;;;;6.83;1.23;;;;;;;;;;5012946;28;20452;-82
2022/09/19 04:33:18;;;;;;;1.67;0.80;;;7.20;99.90;;;;;;5011320;28;20480;-83
2022/09/19 04:35:45;;;;;;;5.53;1.00;;;;;;;;;;5013099;28;20523;-82
2022/09/19 04:38:14;;;;;;;2.53;1.20;;;7.20;99.90;;;;;;5013318;28;20503;-81
2022/09/19 04:40:42;;;;;;;3.20;1.30;;;7.20;99.90;;;;;;5020509;28;20442;-80
2022/09/19 04:43:13;;;;;;;1.57;1.17;;;7.20;99.90;;;;;;5038097;28;20440;-82
2022/09/19 04:45:44;;;;;;;3.50;0.80;;;;;;;;;;5020662;28;20462;-82
2022/09/19 04:48:12;;;;;;;2.10;0.90;;;;;;;;;;5012435;28;20543;-82
2022/09/19 04:50:39;;;;;;;4.00;0.83;;;;;;;;;;5012788;28;20476;-83
2022/09/19 04:53:06;;;;;;;4.67;1.20;;;;;;;;;;5015648;28;20454;-83
2022/09/19 04:55:34;;;;;;;0.50;0.33;;;;;;;;;;5016348;28;20492;-83
2022/09/19 04:58:01;;;;;;;1.80;1.00;;;;;;;;;;5015960;28;21003;-86
2022/09/19 05:00:39;;;;;;;3.97;1.60;;;;;;;;;;5015948;28;20452;-83
2022/09/19 05:03:08;;;;;;;5.60;1.20;;;7.30;99.90;;;;;;5014770;28;20498;-83
2022/09/19 05:05:36;;;;;;;2.63;1.17;;;;;;;;;;5016213;28;20456;-82
2022/09/19 05:08:04;;;;;;;2.43;0.93;;;7.30;99.90;;;;;;5018256;28;20499;-83
2022/09/19 05:10:32;;;;;;;4.87;1.57;;;;;;;;;;5016084;28;20841;-82
2022/09/19 05:12:59;;;;;;;5.00;0.80;;;;;;;;;;5016124;28;20810;-85
2022/09/19 05:15:26;;;;;;;3.33;0.90;;;;;;;;;;5015937;28;20495;-83
2022/09/19 05:17:55;;;;;;;6.10;1.30;;;7.30;99.90;;;;;;5015069;28;20448;-82
2022/09/19 05:20:25;;;;;;;1.87;1.13;;;7.40;99.90;;;;;;5011022;28;20510;-79
2022/09/19 05:22:56;;;;;;;2.80;1.40;;;7.40;99.90;;;;;;5017627;28;20462;-82
2022/09/19 05:25:23;;;;;;;1.10;0.60;;;;;;;;;;5011363;28;20446;-81
2022/09/19 05:27:50;;;;;;;0.83;0.60;;;;;;;;;;5020073;28;20445;-82
2022/09/19 05:30:21;;;;;;;4.23;1.20;;;;;;;;;;5016068;28;20452;-81
2022/09/19 05:32:48;;;;;;;4.23;2.00;;;;;;;;;;5014443;28;20480;-81
2022/09/19 05:35:17;;;;;;;2.57;1.37;;;;;;;;;;5015489;28;20492;-81
2022/09/19 05:37:46;;;;;;;1.93;0.90;;;;;;;;;;5012502;28;20449;-82
2022/09/19 05:40:13;;;;;;;3.30;1.23;;;;;;;;;;5012302;28;20466;-80
2022/09/19 05:42:41;;;;;;;5.90;1.33;;;7.60;99.90;;;;;;5012878;28;20523;-82
2022/09/19 05:45:09;;;;;;;0.80;0.47;;;7.60;99.90;;;;;;5015281;28;20498;-82
2022/09/19 05:47:39;;;;;;;5.30;1.97;;;;;;;;;;5013795;28;20456;-83
2022/09/19 05:50:08;;;;;;;4.97;1.00;;;7.70;99.90;;;;;;5011981;28;20479;-85
2022/09/19 05:55:22;;;;;;;6.70;1.80;;;;;;;;;;5014902;28;20572;-82
2022/09/19 05:57:53;;;;;;;6.57;1.70;;;;;;;;;;5009250;28;20526;-83
2022/09/19 06:00:20;;;;;;;3.60;1.43;;;7.80;99.90;;;;;;5014847;28;20834;-81
2022/09/19 06:02:53;;;;;;;2.77;1.00;;;;;;;;;;5013306;28;20950;-82
2022/09/19 06:05:20;;;;;;;4.70;1.70;;;;;;;;;;5014646;28;20463;-83
2022/09/19 06:07:50;;;;;;;3.10;0.97;;;;;;;;;;5011702;28;20451;-84
2022/09/19 06:10:17;;;;;;;5.27;1.63;;;;;;;;;;5014625;28;20444;-81
2022/09/19 06:12:44;;;;;;;4.00;1.53;;;;;;;;;;5014452;28;20452;-82
2022/09/19 06:15:12;;;;;;;7.90;1.57;;;;;;;;;;5014343;28;20507;-83
2022/09/19 06:17:39;;;;;;;2.07;1.20;;;;;;;;;;5013661;28;20452;-83
2022/09/19 06:20:07;;;;;;;5.43;1.43;;;8.10;99.90;;;;;;5014830;28;20480;-81
2022/09/19 06:22:34;;;;;;;1.00;0.83;;;;;;;;;;5014451;28;20456;-84
2022/09/19 06:25:03;;;;;;;3.23;1.00;;;;;;;;;;5011535;28;20457;-82
2022/09/19 06:27:30;;;;;;;7.73;1.80;;;;;;;;;;5014329;28;20464;-82
2022/09/19 06:29:58;;;;;;;1.27;0.83;;;;;;;;;;5014682;28;20474;-80
2022/09/19 06:32:25;;;;;;;3.80;1.50;;;;;;;;;;5013013;28;20490;-78
2022/09/19 06:34:52;;;;;;;4.10;1.30;;;;;;;;;;5014278;28;20495;-80
2022/09/19 06:37:20;;;;;;;3.77;1.10;;;;;;;;;;5014295;28;20460;-81
2022/09/19 06:39:47;;;;;;;1.30;1.20;;;;;;;;;;5014255;28;20474;-83
2022/09/19 06:42:15;;;;;;;5.20;1.43;;;;;;;;;;5014252;28;20456;-83
2022/09/19 06:44:42;;;;;;;7.00;2.33;;;;;;;;;;5014143;28;20472;-81
2022/09/19 06:47:09;;;;;;;9.40;1.40;;;;;;;;;;5012908;28;20471;-86
2022/09/19 06:49:37;;;;;;;5.00;1.27;;;;;;;;;;5014242;28;20813;-82
2022/09/19 06:52:04;;;;;;;4.63;1.20;;;;;;;;;;5013982;28;20449;-83
2022/09/19 06:54:31;;;;;;;5.20;1.30;;;;;;;;;;5010212;28;20456;-82
2022/09/19 06:56:58;;;;;;;6.40;1.20;;;;;;;;;;5013931;28;20464;-84
2022/09/19 06:59:27;;;;;;;8.33;1.47;;;;;;;;;;5014293;28;20836;-83
2022/09/19 07:01:54;;;;;;;6.70;1.50;;;;;;;;;;5005964;28;20472;-82
2022/09/19 07:04:21;;;;;;;8.17;1.40;;;;;;;;;;5013276;28;20455;-84
2022/09/19 07:06:48;;;;;;;3.77;1.10;;;;;;;;;;5013782;28;20812;-82
2022/09/19 07:09:15;;;;;;;9.70;1.40;;;;;;;;;;5014458;28;20475;-83
2022/09/19 07:11:44;;;;;;;4.20;1.30;;;;;;;;;;5018108;28;20452;-81
2022/09/19 07:14:11;;;;;;;2.30;0.83;;;9.00;99.90;;;;;;5035913;28;20961;-81
2022/09/19 07:16:40;;;;;;;6.53;1.87;;;;;;;;;;5024375;28;20492;-84
2022/09/19 07:19:07;;;;;;;1.67;0.67;;;;;;;;;;5014313;28;20452;-79
2022/09/19 07:21:34;;;;;;;7.27;1.47;;;;;;;;;;5013747;28;20452;-85
2022/09/19 07:24:04;;;;;;;4.13;1.63;;;;;;;;;;5013472;28;20457;-90
2022/09/19 07:26:31;;;;;;;20.00;1.70;;;;;;;;;;5013464;28;20456;-87
2022/09/19 07:28:58;;;;;;;3.07;1.50;;;;;;;;;;5013521;28;20441;-85
2022/09/19 07:31:25;;;;;;;7.67;1.70;;;;;;;;;;5013357;28;20456;-81
2022/09/19 07:33:54;;;;;;;2.83;1.33;;;9.70;99.90;;;;;;5011970;28;20480;-79
2022/09/19 07:36:22;;;;;;;4.67;0.97;;;;;;;;;;5013332;28;20550;-82
2022/09/19 07:38:49;;;;;;;5.90;1.30;;;;;;;;;;5013280;28;20947;-79
2022/09/19 07:41:16;;;;;;;11.13;2.40;;;;;;;;;;5013250;28;20514;-84
2022/09/19 07:43:44;;;;;;;3.47;1.40;;;;;;;;;;5013354;28;20452;-86
2022/09/19 07:46:14;;;;;;;5.93;1.40;;;;;;;;;;5013261;28;20540;-84
2022/09/19 07:48:42;;;;;;;3.87;1.30;;;;;;;;;;5012118;28;20457;-78
2022/09/19 07:51:10;;;;;;;6.47;1.50;;;10.00;99.90;;;;;;5013467;28;20460;-84
2022/09/19 07:53:37;;;;;;;4.57;1.00;;;;;;;;;;5013158;28;20466;-79
2022/09/19 07:56:05;;;;;;;8.20;1.50;;;;;;;;;;5012864;28;20511;-79
2022/09/19 07:58:34;;;;;;;4.73;1.57;;;;;;;;;;5012739;28;20460;-79
2022/09/19 08:01:02;;;;;;;4.37;1.00;;;10.00;99.90;;;;;;5012737;28;20830;-82
2022/09/19 08:03:29;;;;;;;5.50;1.37;;;10.00;99.90;;;;;;5011643;28;20979;-85
2022/09/19 08:06:00;;;;;;;4.90;1.13;;;10.10;99.90;;;;;;5012829;28;20448;-84
2022/09/19 08:08:28;;;;;;;4.73;1.37;;;;;;;;;;5012786;28;20476;-82
2022/09/19 08:11:01;;;;;;;10.60;1.87;;;10.30;99.90;;;;;;5008990;28;20974;-82
2022/09/19 08:13:29;;;;;;;8.70;2.20;;;;;;;;;;5012743;28;20595;-84
2022/09/19 08:15:57;;;;;;;5.53;1.77;;;;;;;;;;5012702;28;20849;-82
2022/09/19 08:18:26;;;;;;;3.50;1.73;;;;;;;;;;5011456;28;20521;-84
2022/09/19 08:20:53;;;;;;;6.10;1.40;;;;;;;;;;5012929;28;20448;-85
2022/09/19 08:23:21;;;;;;;5.23;1.50;;;10.90;99.90;;;;;;5012811;28;20455;-85
2022/09/19 08:25:50;;;;;;;5.53;1.30;;;10.90;99.90;;;;;;5013748;28;20547;-83
2022/09/19 08:28:18;;;;;;;4.97;1.60;;;;;;;;;;5016386;28;20456;-85
2022/09/19 08:30:47;;;;;;;8.07;1.73;;;;;;;;;;5016609;28;20448;-85
2022/09/19 08:33:14;;;;;;;6.27;1.30;;;11.00;99.90;;;;;;5015336;28;20484;-86
2022/09/19 08:35:41;;;;;;;11.73;1.60;;;;;;;;;;5016384;28;20582;-86
2022/09/19 08:38:11;;;;;;;9.00;1.77;;;11.30;99.90;;;;;;5016263;28;20452;-91
2022/09/19 08:40:51;;;;;;;10.00;2.33;;;;;;;;;;5016404;28;20448;-88
2022/09/19 08:43:22;;;;;;;6.73;1.87;;;;;;;;;;5017044;28;20456;-91
2022/09/19 08:46:01;;;;;;;7.83;1.67;;;;;;;;;;5016601;28;20456;-88
2022/09/19 08:48:30;;;;;;;4.10;1.30;;;;;;;;;;5015559;28;20452;-86
2022/09/19 08:50:59;;;;;;;8.73;1.63;;;;;;;;;;5016190;28;20452;-88
2022/09/19 08:53:32;;;;;;;10.90;1.97;;;11.90;99.90;;;;;;5016159;28;20453;-85
2022/09/19 08:56:00;;;;;;;12.50;1.83;;;;;;;;;;5016142;28;20555;-81
2022/09/19 08:58:32;;;;;;;4.70;1.73;;;11.30;99.90;;;;;;5016217;28;20484;-89
2022/09/19 09:01:01;;;;;;;6.83;2.07;;;11.20;99.90;;;;;;5016432;28;20460;-84
2022/09/19 09:03:36;;;;;;;5.80;1.47;;;11.30;99.90;;;;;;5014512;28;20983;-83
2022/09/19 09:06:16;;;;;;;4.87;1.57;;;11.10;99.90;;;;;;5015729;28;20936;-82
2022/09/19 09:08:49;;;;;;;4.47;2.53;;;;;;;;;;5015774;28;20940;-82
2022/09/19 09:11:27;;;;;;;7.30;2.23;;;11.10;99.90;;;;;;5015703;28;20455;-83
2022/09/19 09:14:03;;;;;;;8.53;1.83;;;11.30;99.90;;;;;;5015701;28;20476;-80
2022/09/19 09:16:44;;;;;;;9.00;2.10;;;11.40;99.90;;;;;;5015633;28;20496;-82
2022/09/19 09:19:33;;;;;;;7.93;1.73;;;11.50;99.90;;;;;;5015292;28;20453;-83
2022/09/19 09:22:09;;;;;;;3.53;1.90;;;11.50;99.90;;;;;;5015455;28;20461;-83
2022/09/19 09:24:40;;;;;;;10.03;2.30;;;11.50;99.90;;;;;;5015287;28;20815;-83
2022/09/19 09:27:15;;;;;;;4.47;1.73;;;11.50;99.90;;;;;;5015370;28;20449;-85
2022/09/19 09:29:46;;;;;;;4.77;1.73;;;11.40;99.90;;;;;;5015282;28;20514;-83
2022/09/19 09:32:17;;;;;;;7.20;1.83;;;11.30;99.90;;;;;;5013998;28;20488;-83
2022/09/19 09:34:50;;;;;;;7.37;1.90;;;11.30;99.90;;;;;;5015178;28;20449;-82
2022/09/19 09:37:21;;;;;;;5.17;1.50;;;11.70;99.90;;;;;;5014322;28;20503;-82
2022/09/19 09:40:00;;;;;;;7.07;2.17;;;12.00;99.90;;;;;;5012177;28;20455;-83
2022/09/19 09:42:32;;;;;;;6.57;2.07;;;11.90;99.90;;;;;;5015305;28;20452;-86
2022/09/19 09:45:07;;;;;;;8.07;1.80;;;12.00;99.90;;;;;;5014949;28;20789;-84
2022/09/19 09:47:45;;;;;;;2.53;1.47;;;11.80;99.90;;;;;;5013175;28;20460;-81
2022/09/19 09:50:46;;;;;;;4.33;1.60;;;11.60;99.90;;;;;;5015055;28;20835;-79
2022/09/19 09:53:25;;;;;;;3.97;1.67;;;12.00;99.90;;;;;;5010974;28;20460;-82
2022/09/19 09:56:17;;;;;;;6.00;1.93;;;11.90;99.90;;;;;;5014571;28;20487;-79
2022/09/19 09:59:00;;;;;;;3.13;1.53;;;12.10;99.90;;;;;;5014822;28;20944;-80
2022/09/19 10:04:33;;;;;;;6.30;1.80;;;12.60;99.90;;;;;;5014571;28;20451;-79
2022/09/19 10:07:12;;;;;;;7.67;2.87;;;12.90;99.90;;;;;;5014660;28;20462;-79
2022/09/19 10:09:45;;;;;;;6.77;2.03;;;12.90;99.90;;;;;;5014363;28;20538;-78
2022/09/19 10:12:23;;;;;;;5.93;2.53;;;12.70;99.90;;;;;;5010381;28;20452;-78
2022/09/19 10:14:54;;;;;;;3.63;1.33;;;12.80;99.90;;;;;;5014207;28;20966;-80
2022/09/19 10:17:24;;;;;;;5.70;2.00;;;12.90;99.90;;;;;;5013058;28;20549;-78
2022/09/19 10:19:57;;;;;;;3.30;1.40;;;12.80;99.90;;;;;;5014407;28;20460;-80
2022/09/19 10:22:24;;;;;;;7.03;1.50;;;;;;;;;;5014258;28;20927;-82
2022/09/19 10:24:55;;;;;;;6.30;1.60;;;12.80;99.90;;;;;;5011035;28;20436;-78
2022/09/19 10:27:25;;;;;;;6.47;1.80;;;12.80;99.90;;;;;;5011601;28;20448;-78
2022/09/19 10:29:57;;;;;;;6.37;1.30;;;12.90;99.90;;;;;;5014140;28;20490;-76
2022/09/19 10:32:27;;;;;;;4.10;1.83;;;12.90;99.90;;;;;;5012902;28;21054;-80
2022/09/19 10:34:55;;;;;;;3.17;1.00;;;;;;;;;;5014085;28;20452;-79
2022/09/19 10:37:25;;;;;;;5.73;1.40;;;12.60;99.90;;;;;;5014043;28;20529;-78
2022/09/19 10:39:54;;;;;;;3.20;1.40;;;;;;;;;;5014031;28;20452;-79
2022/09/19 10:42:42;;;;;;;4.37;1.13;;;12.80;99.90;;;;;;5011304;28;20540;-81
2022/09/19 10:45:25;;;;;;;5.83;1.60;;;13.60;99.90;;;;;;5012098;28;20484;-80
2022/09/19 10:48:00;;;;;;;2.87;1.20;;;14.30;99.90;;;;;;5012543;28;20978;-82
2022/09/19 10:50:27;;;;;;;2.50;0.90;;;14.20;99.90;;;;;;5014028;28;20475;-82
2022/09/19 10:53:01;;;;;;;2.20;0.90;;;14.20;99.90;;;;;;5014150;28;20444;-78
2022/09/19 10:55:29;;;;;;;3.00;1.30;;;;;;;;;;5013749;28;20455;-79
2022/09/19 10:58:03;;;;;;;2.10;1.37;;;14.00;99.90;;;;;;5013641;28;20500;-80
2022/09/19 11:00:34;;;;;;;2.37;1.03;;;13.50;99.90;;;;;;5013537;28;20463;-78
2022/09/19 11:03:06;;;;;;;3.10;1.13;;;13.20;99.90;;;;;;5012278;28;20502;-79
2022/09/19 11:05:36;;;;;;;4.50;1.60;;;13.30;99.90;;;;;;5013605;28;20456;-81
2022/09/19 11:08:22;;;;;;;3.93;1.10;;;13.20;99.90;;;;;;5013646;28;20519;-82
2022/09/19 11:10:49;;;;;;;2.27;0.97;;;;;;;;;;5013450;28;20456;-77
2022/09/19 11:13:20;;;;;;;2.87;1.03;;;14.00;99.90;;;;;;5013499;28;20448;-78
2022/09/19 11:16:03;;;;;;;5.40;1.00;;;13.90;99.90;;;;;;5013550;28;20989;-79
2022/09/19 11:18:47;;;;;;;4.27;1.07;;;13.90;99.90;;;;;;5012252;28;20539;-78
2022/09/19 11:21:28;;;;;;;5.23;1.47;;;13.50;99.90;;;;;;5013354;28;20543;-82
2022/09/19 11:24:16;;;;;;;3.20;1.00;;;13.40;99.90;;;;;;5013295;28;20490;-80
2022/09/19 11:26:59;;;;;;;2.67;1.40;;;13.40;99.90;;;;;;5010423;28;20452;-78
2022/09/19 11:29:44;;;;;;;2.30;1.20;;;13.70;99.90;;;;;;5013194;28;20460;-79
2022/09/19 11:32:18;;;;;;;6.60;1.20;;;13.80;99.90;;;;;;5011805;28;20451;-79
2022/09/19 11:34:55;;;;;;;3.87;1.10;;;13.60;99.90;;;;;;5013152;28;20444;-78
2022/09/19 11:37:41;;;;;;;2.83;1.00;;;13.90;99.90;;;;;;5012979;28;20491;-78
2022/09/19 11:40:26;;;;;;;3.17;1.00;;;13.60;99.90;;;;;;5012934;28;20467;-78
2022/09/19 11:43:07;;;;;;;2.63;0.70;;;13.50;99.90;;;;;;5013009;28;20449;-80
2022/09/19 11:45:45;;;;;;;4.17;0.90;;;13.50;99.90;;;;;;5013033;28;20469;-79
2022/09/19 11:48:31;;;;;;;4.83;1.10;;;13.40;99.90;;;;;;5008763;28;20787;-78
2022/09/19 11:51:11;;;;;;;5.97;1.30;;;13.30;99.90;;;;;;5013167;28;20443;-79
2022/09/19 11:53:56;;;;;;;2.63;0.97;;;13.00;99.90;;;;;;5009628;28;20979;-78
2022/09/19 11:56:48;;;;;;;2.07;0.90;;;12.90;99.90;;;;;;5007361;28;20993;-79
2022/09/19 11:59:30;;;;;;;4.30;1.10;;;13.10;99.90;;;;;;5012925;28;20955;-79
2022/09/19 12:02:13;;;;;;;7.03;1.97;;;13.20;99.90;;;;;;5011568;28;21002;-80
2022/09/19 12:04:45;;;;;;;5.30;1.50;;;13.20;99.90;;;;;;5013771;28;20973;-78
2022/09/19 12:07:34;;;;;;;1.97;1.00;;;13.30;99.90;;;;;;5016362;28;20456;-78
2022/09/19 12:10:07;;;;;;;2.17;1.43;;;13.10;99.90;;;;;;5012173;28;20451;-78
2022/09/19 12:12:39;;;;;;;3.27;0.97;;;13.00;99.90;;;;;;5016420;28;20444;-83
2022/09/19 12:15:19;;;;;;;0.93;0.70;;;12.90;99.90;;;;;;5014018;28;20881;-78
2022/09/19 12:17:53;;;;;;;2.10;1.03;;;12.90;99.90;;;;;;5015173;28;20499;-80
2022/09/19 12:20:24;;;;;;;1.60;0.63;;;12.80;99.90;;;;;;5016709;28;20469;-77
2022/09/19 12:22:55;;;;;;;3.90;1.27;;;12.70;99.90;;;;;;5016728;28;20530;-82
2022/09/19 12:25:25;;;;;;;3.90;1.07;;;12.70;99.90;;;;;;5016191;28;20448;-80
2022/09/19 12:27:59;;;;;;;5.00;1.57;;;12.70;99.90;;;;;;5016378;28;20456;-80
2022/09/19 12:30:33;;;;;;;4.73;1.10;;;12.90;99.90;;;;;;5013252;28;20501;-78
2022/09/19 12:33:06;;;;;;;4.10;1.43;;;13.20;99.90;;;;;;5014829;28;20487;-79
2022/09/19 12:35:37;;;;;;;2.97;1.27;;;13.20;99.90;;;;;;5004157;28;20491;-80
2022/09/19 12:38:20;;;;;;;1.57;0.63;;;13.20;99.90;;;;;;5012981;28;20496;-81
2022/09/19 12:40:53;;;;;;;3.10;1.00;;;13.20;99.90;;;;;;5012825;28;20452;-84
2022/09/19 12:43:32;;;;;;;2.00;0.67;;;13.10;99.90;;;;;;5013350;28;20828;-81
2022/09/19 12:46:09;;;;;;;2.57;1.00;;;12.90;99.90;;;;;;5015993;28;20476;-84
2022/09/19 12:48:47;;;;;;;1.73;0.63;;;13.00;99.90;;;;;;5014853;28;20456;-82
2022/09/19 12:51:22;;;;;;;1.60;0.87;;;13.20;99.90;;;;;;5015636;28;20543;-84
2022/09/19 12:53:56;;;;;;;1.73;0.83;;;13.10;99.90;;;;;;5015974;28;20498;-84
2022/09/19 12:56:30;;;;;;;3.47;0.77;;;13.20;99.90;;;;;;5015882;28;20436;-80
2022/09/19 12:59:05;;;;;;;3.63;1.23;;;13.20;99.90;;;;;;5015977;28;20444;-83
2022/09/19 13:01:38;;;;;;;3.80;1.20;;;13.30;99.90;;;;;;5015786;28;20443;-84
2022/09/19 13:04:18;;;;;;;4.47;1.20;;;13.50;99.90;;;;;;5014619;28;20444;-82
2022/09/19 13:06:46;;;;;;;1.43;0.80;;;13.70;99.90;;;;;;5015805;28;20456;-83
2022/09/19 13:09:19;;;;;;;2.63;1.10;;;14.00;99.90;;;;;;5015747;28;20448;-84
2022/09/19 13:11:49;;;;;;;3.67;1.27;;;14.20;99.90;;;;;;5014982;28;20951;-83
2022/09/19 13:14:21;;;;;;;2.10;0.80;;;14.10;99.90;;;;;;5003849;28;20441;-84
2022/09/19 13:25:17;;;;;;;0.63;0.50;;;13.90;99.90;;;;;;5015592;28;20970;-82
2022/09/19 13:27:45;;;;;;;1.00;0.90;;;;;;;;;;5015930;28;20454;-80
2022/09/19 13:30:46;;;;;;;1.43;0.70;;;14.20;99.90;;;;;;5017750;28;21010;-83
2022/09/19 13:33:22;;;;;;;2.80;1.10;;;14.20;99.90;;;;;;5007811;28;20496;-88
2022/09/19 13:35:52;;;;;;;2.80;0.80;;;14.40;99.90;;;;;;5017566;28;20456;-84
2022/09/19 13:38:35;;;;;;;1.90;0.93;;;14.40;99.90;;;;;;5015518;28;20656;-81
2022/09/19 13:41:06;;;;;;;2.27;0.97;;;14.50;99.90;;;;;;5018558;28;20456;-82
2022/09/19 13:43:54;;;;;;;1.90;0.93;;;14.50;99.90;;;;;;5018157;28;20562;-82
2022/09/19 13:46:30;;;;;;;0.97;0.70;;;14.40;99.90;;;;;;5024422;28;20444;-79
2022/09/19 13:49:05;;;;;;;2.37;0.90;;;14.30;99.90;;;;;;5020542;28;20454;-86
2022/09/19 13:51:39;;;;;;;1.10;0.73;;;14.30;99.90;;;;;;5026378;28;20456;-84
2022/09/19 13:54:44;;;;;;;4.53;2.40;;;14.40;99.90;;;;;;5016128;28;20476;-84
2022/09/19 13:57:20;;;;;;;2.70;0.90;;;14.60;99.90;;;;;;5015797;28;20546;-79
2022/09/19 13:59:51;;;;;;;8.23;1.70;;;14.60;99.90;;;;;;5018338;28;20475;-80
2022/09/19 14:02:27;;;;;;;3.23;0.70;;;14.80;99.90;;;;;;5014226;28;20448;-88
2022/09/19 14:05:02;;;;;;;4.93;1.27;;;14.50;99.90;;;;;;5014984;28;20535;-78
2022/09/19 14:07:37;;;;;;;1.93;0.80;;;14.40;99.90;;;;;;5014967;28;20467;-81
2022/09/19 14:10:16;;;;;;;2.13;1.10;;;14.40;99.90;;;;;;5009666;28;20448;-79
2022/09/19 14:12:54;;;;;;;4.50;1.23;;;14.70;99.90;;;;;;5014976;28;20460;-78